sensor_id;sensor_type;location;lat;lon;timestamp;P1;durP1;ratioP1;P2;durP2;ratioP2
29662;SDS011;16578;53.266;7.920;2023-04-03T00:01:31;4.03;;;1.38;;
29662;SDS011;16578;53.266;7.920;2023-04-03T00:03:56;4.40;;;1.42;;
29662;SDS011;16578;53.266;7.920;2023-04-03T00:06:22;5.00;;;1.30;;
29662;SDS011;16578;53.266;7.920;2023-04-03T00:08:48;5.70;;;1.52;;
29662;SDS011;16578;53.266;7.920;2023-04-03T00:11:14;3.05;;;1.35;;
29662;SDS011;16578;53.266;7.920;2023-04-03T00:13:40;3.95;;;1.60;;
29662;SDS011;16578;53.266;7.920;2023-04-03T00:16:07;3.20;;;1.10;;
29662;SDS011;16578;53.266;7.920;2023-04-03T00:18:35;1.23;;;1.10;;
29662;SDS011;16578;53.266;7.920;2023-04-03T00:21:01;1.88;;;1.10;;
29662;SDS011;16578;53.266;7.920;2023-04-03T00:23:27;4.50;;;1.65;;
29662;SDS011;16578;53.266;7.920;2023-04-03T00:25:53;4.80;;;1.50;;
29662;SDS011;16578;53.266;7.920;2023-04-03T00:28:19;5.30;;;1.77;;
29662;SDS011;16578;53.266;7.920;2023-04-03T00:30:46;3.05;;;1.20;;
29662;SDS011;16578;53.266;7.920;2023-04-03T00:33:13;5.72;;;1.60;;
29662;SDS011;16578;53.266;7.920;2023-04-03T00:35:38;1.30;;;1.05;;
29662;SDS011;16578;53.266;7.920;2023-04-03T00:38:05;2.53;;;1.20;;
29662;SDS011;16578;53.266;7.920;2023-04-03T00:40:33;1.08;;;0.93;;
29662;SDS011;16578;53.266;7.920;2023-04-03T00:43:12;2.85;;;1.25;;
29662;SDS011;16578;53.266;7.920;2023-04-03T00:45:42;3.70;;;1.00;;
29662;SDS011;16578;53.266;7.920;2023-04-03T00:48:10;4.97;;;1.50;;
29662;SDS011;16578;53.266;7.920;2023-04-03T00:50:40;4.53;;;1.63;;
29662;SDS011;16578;53.266;7.920;2023-04-03T00:53:08;2.63;;;1.10;;
29662;SDS011;16578;53.266;7.920;2023-04-03T00:55:41;2.65;;;0.90;;
29662;SDS011;16578;53.266;7.920;2023-04-03T00:58:07;2.83;;;1.27;;
29662;SDS011;16578;53.266;7.920;2023-04-03T01:00:34;3.30;;;1.52;;
29662;SDS011;16578;53.266;7.920;2023-04-03T01:03:03;4.00;;;1.17;;
29662;SDS011;16578;53.266;7.920;2023-04-03T01:05:29;7.18;;;2.28;;
29662;SDS011;16578;53.266;7.920;2023-04-03T01:07:55;2.65;;;1.38;;
29662;SDS011;16578;53.266;7.920;2023-04-03T01:10:22;1.40;;;1.05;;
29662;SDS011;16578;53.266;7.920;2023-04-03T01:12:48;3.50;;;1.35;;
29662;SDS011;16578;53.266;7.920;2023-04-03T01:15:16;4.40;;;2.20;;
29662;SDS011;16578;53.266;7.920;2023-04-03T01:17:46;3.42;;;1.20;;
29662;SDS011;16578;53.266;7.920;2023-04-03T01:25:35;2.97;;;1.40;;
29662;SDS011;16578;53.266;7.920;2023-04-03T01:28:15;3.95;;;1.50;;
29662;SDS011;16578;53.266;7.920;2023-04-03T01:33:43;3.95;;;1.60;;
29662;SDS011;16578;53.266;7.920;2023-04-03T01:36:09;3.15;;;1.73;;
29662;SDS011;16578;53.266;7.920;2023-04-03T01:38:38;4.57;;;1.65;;
29662;SDS011;16578;53.266;7.920;2023-04-03T01:41:04;4.13;;;2.00;;
29662;SDS011;16578;53.266;7.920;2023-04-03T01:43:29;3.40;;;1.55;;
29662;SDS011;16578;53.266;7.920;2023-04-03T01:45:55;5.35;;;1.75;;
29662;SDS011;16578;53.266;7.920;2023-04-03T01:48:21;3.75;;;1.55;;
29662;SDS011;16578;53.266;7.920;2023-04-03T01:50:46;2.65;;;1.30;;
29662;SDS011;16578;53.266;7.920;2023-04-03T01:53:12;2.85;;;1.55;;
29662;SDS011;16578;53.266;7.920;2023-04-03T01:55:38;5.75;;;1.52;;
29662;SDS011;16578;53.266;7.920;2023-04-03T01:58:04;2.95;;;1.60;;
29662;SDS011;16578;53.266;7.920;2023-04-03T02:00:29;5.10;;;1.50;;
29662;SDS011;16578;53.266;7.920;2023-04-03T02:02:55;3.83;;;1.60;;
29662;SDS011;16578;53.266;7.920;2023-04-03T02:05:21;7.65;;;1.80;;
29662;SDS011;16578;53.266;7.920;2023-04-03T02:07:47;6.22;;;1.90;;
29662;SDS011;16578;53.266;7.920;2023-04-03T02:10:13;2.72;;;1.38;;
29662;SDS011;16578;53.266;7.920;2023-04-03T02:12:38;4.45;;;1.90;;
29662;SDS011;16578;53.266;7.920;2023-04-03T02:15:04;3.38;;;1.70;;
29662;SDS011;16578;53.266;7.920;2023-04-03T02:17:30;3.10;;;1.58;;
29662;SDS011;16578;53.266;7.920;2023-04-03T02:19:56;3.80;;;1.45;;
29662;SDS011;16578;53.266;7.920;2023-04-03T02:22:21;6.60;;;2.30;;
29662;SDS011;16578;53.266;7.920;2023-04-03T02:24:47;5.80;;;1.90;;
29662;SDS011;16578;53.266;7.920;2023-04-03T02:27:13;2.92;;;1.70;;
29662;SDS011;16578;53.266;7.920;2023-04-03T02:29:38;5.45;;;1.58;;
29662;SDS011;16578;53.266;7.920;2023-04-03T02:32:04;4.10;;;1.67;;
29662;SDS011;16578;53.266;7.920;2023-04-03T02:34:30;5.20;;;1.50;;
29662;SDS011;16578;53.266;7.920;2023-04-03T02:36:55;2.75;;;1.60;;
29662;SDS011;16578;53.266;7.920;2023-04-03T02:39:21;4.28;;;2.10;;
29662;SDS011;16578;53.266;7.920;2023-04-03T02:41:46;4.30;;;1.73;;
29662;SDS011;16578;53.266;7.920;2023-04-03T02:44:12;4.25;;;1.58;;
29662;SDS011;16578;53.266;7.920;2023-04-03T02:46:38;6.63;;;1.75;;
29662;SDS011;16578;53.266;7.920;2023-04-03T02:49:03;4.10;;;1.90;;
29662;SDS011;16578;53.266;7.920;2023-04-03T02:51:29;5.10;;;2.10;;
29662;SDS011;16578;53.266;7.920;2023-04-03T02:53:55;4.55;;;1.80;;
29662;SDS011;16578;53.266;7.920;2023-04-03T02:56:20;1.85;;;1.30;;
29662;SDS011;16578;53.266;7.920;2023-04-03T02:58:46;4.60;;;1.90;;
29662;SDS011;16578;53.266;7.920;2023-04-03T03:01:11;2.25;;;1.67;;
29662;SDS011;16578;53.266;7.920;2023-04-03T03:03:37;5.28;;;1.63;;
29662;SDS011;16578;53.266;7.920;2023-04-03T03:06:08;3.28;;;1.70;;
29662;SDS011;16578;53.266;7.920;2023-04-03T03:08:35;4.00;;;1.50;;
29662;SDS011;16578;53.266;7.920;2023-04-03T03:11:02;2.70;;;1.70;;
29662;SDS011;16578;53.266;7.920;2023-04-03T03:13:28;4.95;;;1.75;;
29662;SDS011;16578;53.266;7.920;2023-04-03T03:15:54;3.30;;;1.67;;
29662;SDS011;16578;53.266;7.920;2023-04-03T03:18:20;4.57;;;2.10;;
29662;SDS011;16578;53.266;7.920;2023-04-03T03:20:46;4.95;;;2.20;;
29662;SDS011;16578;53.266;7.920;2023-04-03T03:23:15;4.32;;;2.28;;
29662;SDS011;16578;53.266;7.920;2023-04-03T03:25:41;4.35;;;1.40;;
29662;SDS011;16578;53.266;7.920;2023-04-03T03:28:06;6.63;;;2.40;;
29662;SDS011;16578;53.266;7.920;2023-04-03T03:30:33;4.20;;;2.20;;
29662;SDS011;16578;53.266;7.920;2023-04-03T03:32:58;2.03;;;1.70;;
29662;SDS011;16578;53.266;7.920;2023-04-03T03:35:24;4.68;;;2.03;;
29662;SDS011;16578;53.266;7.920;2023-04-03T03:37:50;4.07;;;1.83;;
29662;SDS011;16578;53.266;7.920;2023-04-03T03:40:15;3.75;;;1.77;;
29662;SDS011;16578;53.266;7.920;2023-04-03T03:42:41;4.95;;;1.83;;
29662;SDS011;16578;53.266;7.920;2023-04-03T03:45:06;3.17;;;1.80;;
29662;SDS011;16578;53.266;7.920;2023-04-03T03:47:33;6.90;;;2.22;;
29662;SDS011;16578;53.266;7.920;2023-04-03T03:49:58;4.15;;;2.00;;
29662;SDS011;16578;53.266;7.920;2023-04-03T03:52:24;8.75;;;2.67;;
29662;SDS011;16578;53.266;7.920;2023-04-03T03:54:50;5.38;;;2.63;;
29662;SDS011;16578;53.266;7.920;2023-04-03T03:57:15;5.45;;;2.40;;
29662;SDS011;16578;53.266;7.920;2023-04-03T03:59:41;3.53;;;2.10;;
29662;SDS011;16578;53.266;7.920;2023-04-03T04:02:08;5.15;;;2.13;;
29662;SDS011;16578;53.266;7.920;2023-04-03T04:04:34;4.57;;;2.03;;
29662;SDS011;16578;53.266;7.920;2023-04-03T04:06:59;5.90;;;2.60;;
29662;SDS011;16578;53.266;7.920;2023-04-03T04:09:25;6.55;;;2.78;;
29662;SDS011;16578;53.266;7.920;2023-04-03T04:11:51;3.83;;;2.30;;
29662;SDS011;16578;53.266;7.920;2023-04-03T04:14:17;4.13;;;2.08;;
29662;SDS011;16578;53.266;7.920;2023-04-03T04:16:45;4.07;;;2.00;;
29662;SDS011;16578;53.266;7.920;2023-04-03T04:19:11;7.35;;;2.20;;
29662;SDS011;16578;53.266;7.920;2023-04-03T04:21:37;6.18;;;2.13;;
29662;SDS011;16578;53.266;7.920;2023-04-03T04:24:02;4.13;;;1.80;;
29662;SDS011;16578;53.266;7.920;2023-04-03T04:26:28;6.57;;;2.65;;
29662;SDS011;16578;53.266;7.920;2023-04-03T04:28:53;4.18;;;2.22;;
29662;SDS011;16578;53.266;7.920;2023-04-03T04:31:19;3.90;;;2.10;;
29662;SDS011;16578;53.266;7.920;2023-04-03T04:33:44;4.30;;;2.03;;
29662;SDS011;16578;53.266;7.920;2023-04-03T04:36:10;6.63;;;2.80;;
29662;SDS011;16578;53.266;7.920;2023-04-03T04:38:36;3.90;;;2.13;;
29662;SDS011;16578;53.266;7.920;2023-04-03T04:41:01;6.90;;;2.67;;
29662;SDS011;16578;53.266;7.920;2023-04-03T04:43:27;6.30;;;2.40;;
29662;SDS011;16578;53.266;7.920;2023-04-03T04:46:05;5.25;;;3.00;;
29662;SDS011;16578;53.266;7.920;2023-04-03T04:48:37;3.65;;;2.42;;
29662;SDS011;16578;53.266;7.920;2023-04-03T04:51:03;3.17;;;2.50;;
29662;SDS011;16578;53.266;7.920;2023-04-03T04:53:29;6.03;;;2.78;;
29662;SDS011;16578;53.266;7.920;2023-04-03T04:55:54;5.07;;;2.42;;
29662;SDS011;16578;53.266;7.920;2023-04-03T04:58:20;4.53;;;2.50;;
29662;SDS011;16578;53.266;7.920;2023-04-03T05:00:46;7.68;;;2.75;;
29662;SDS011;16578;53.266;7.920;2023-04-03T05:03:11;5.80;;;2.53;;
29662;SDS011;16578;53.266;7.920;2023-04-03T05:05:37;5.25;;;2.60;;
29662;SDS011;16578;53.266;7.920;2023-04-03T05:08:03;3.67;;;2.85;;
29662;SDS011;16578;53.266;7.920;2023-04-03T05:10:29;10.63;;;2.80;;
29662;SDS011;16578;53.266;7.920;2023-04-03T05:12:56;6.35;;;2.60;;
29662;SDS011;16578;53.266;7.920;2023-04-03T05:15:21;7.60;;;2.90;;
29662;SDS011;16578;53.266;7.920;2023-04-03T05:17:47;7.57;;;3.38;;
29662;SDS011;16578;53.266;7.920;2023-04-03T05:20:13;6.45;;;2.85;;
29662;SDS011;16578;53.266;7.920;2023-04-03T05:22:38;5.18;;;3.00;;
29662;SDS011;16578;53.266;7.920;2023-04-03T05:25:04;7.00;;;2.50;;
29662;SDS011;16578;53.266;7.920;2023-04-03T05:27:31;8.32;;;3.35;;
29662;SDS011;16578;53.266;7.920;2023-04-03T05:29:56;4.57;;;2.83;;
29662;SDS011;16578;53.266;7.920;2023-04-03T05:32:23;7.75;;;3.15;;
29662;SDS011;16578;53.266;7.920;2023-04-03T05:34:50;6.22;;;2.95;;
29662;SDS011;16578;53.266;7.920;2023-04-03T05:37:16;7.00;;;3.63;;
29662;SDS011;16578;53.266;7.920;2023-04-03T05:39:42;5.07;;;2.70;;
29662;SDS011;16578;53.266;7.920;2023-04-03T05:42:08;3.28;;;2.60;;
29662;SDS011;16578;53.266;7.920;2023-04-03T05:44:33;5.57;;;3.40;;
29662;SDS011;16578;53.266;7.920;2023-04-03T05:47:00;4.55;;;2.83;;
29662;SDS011;16578;53.266;7.920;2023-04-03T05:49:25;6.80;;;3.30;;
29662;SDS011;16578;53.266;7.920;2023-04-03T05:51:51;4.28;;;2.65;;
29662;SDS011;16578;53.266;7.920;2023-04-03T05:54:20;5.13;;;2.90;;
29662;SDS011;16578;53.266;7.920;2023-04-03T05:56:49;3.85;;;2.67;;
29662;SDS011;16578;53.266;7.920;2023-04-03T05:59:18;6.75;;;3.00;;
29662;SDS011;16578;53.266;7.920;2023-04-03T06:01:45;7.68;;;2.95;;
29662;SDS011;16578;53.266;7.920;2023-04-03T06:04:11;5.43;;;2.53;;
29662;SDS011;16578;53.266;7.920;2023-04-03T06:09:17;5.53;;;2.78;;
29662;SDS011;16578;53.266;7.920;2023-04-03T06:11:43;6.20;;;2.70;;
29662;SDS011;16578;53.266;7.920;2023-04-03T06:14:09;6.70;;;2.60;;
29662;SDS011;16578;53.266;7.920;2023-04-03T06:16:35;7.40;;;2.80;;
29662;SDS011;16578;53.266;7.920;2023-04-03T06:19:02;7.70;;;3.83;;
29662;SDS011;16578;53.266;7.920;2023-04-03T06:21:29;6.57;;;3.20;;
29662;SDS011;16578;53.266;7.920;2023-04-03T06:23:55;6.82;;;3.50;;
29662;SDS011;16578;53.266;7.920;2023-04-03T06:26:20;6.50;;;3.33;;
29662;SDS011;16578;53.266;7.920;2023-04-03T06:28:47;12.25;;;3.47;;
29662;SDS011;16578;53.266;7.920;2023-04-03T06:31:12;7.50;;;3.35;;
29662;SDS011;16578;53.266;7.920;2023-04-03T06:33:38;6.25;;;3.20;;
29662;SDS011;16578;53.266;7.920;2023-04-03T06:36:04;6.45;;;3.10;;
29662;SDS011;16578;53.266;7.920;2023-04-03T06:38:31;4.85;;;3.28;;
29662;SDS011;16578;53.266;7.920;2023-04-03T06:40:57;7.72;;;2.67;;
29662;SDS011;16578;53.266;7.920;2023-04-03T06:43:23;7.07;;;2.78;;
29662;SDS011;16578;53.266;7.920;2023-04-03T06:45:49;9.48;;;3.58;;
29662;SDS011;16578;53.266;7.920;2023-04-03T06:48:15;5.40;;;3.15;;
29662;SDS011;16578;53.266;7.920;2023-04-03T06:50:41;11.10;;;4.45;;
29662;SDS011;16578;53.266;7.920;2023-04-03T06:53:07;12.38;;;4.80;;
29662;SDS011;16578;53.266;7.920;2023-04-03T06:55:33;10.25;;;3.72;;
29662;SDS011;16578;53.266;7.920;2023-04-03T06:57:58;8.70;;;3.53;;
29662;SDS011;16578;53.266;7.920;2023-04-03T07:00:24;8.85;;;3.20;;
29662;SDS011;16578;53.266;7.920;2023-04-03T07:02:49;5.32;;;3.13;;
29662;SDS011;16578;53.266;7.920;2023-04-03T07:05:16;6.15;;;2.97;;
29662;SDS011;16578;53.266;7.920;2023-04-03T07:07:42;6.53;;;2.85;;
29662;SDS011;16578;53.266;7.920;2023-04-03T07:10:08;8.43;;;3.35;;
29662;SDS011;16578;53.266;7.920;2023-04-03T07:12:34;6.88;;;2.75;;
29662;SDS011;16578;53.266;7.920;2023-04-03T07:15:00;6.43;;;3.10;;
29662;SDS011;16578;53.266;7.920;2023-04-03T07:17:26;6.28;;;3.00;;
29662;SDS011;16578;53.266;7.920;2023-04-03T07:19:52;6.45;;;2.60;;
29662;SDS011;16578;53.266;7.920;2023-04-03T07:22:18;8.35;;;2.58;;
29662;SDS011;16578;53.266;7.920;2023-04-03T07:24:43;6.47;;;2.40;;
29662;SDS011;16578;53.266;7.920;2023-04-03T07:27:09;5.22;;;2.28;;
29662;SDS011;16578;53.266;7.920;2023-04-03T07:29:35;6.97;;;2.70;;
29662;SDS011;16578;53.266;7.920;2023-04-03T07:32:01;5.85;;;2.38;;
29662;SDS011;16578;53.266;7.920;2023-04-03T07:34:27;4.43;;;2.28;;
29662;SDS011;16578;53.266;7.920;2023-04-03T07:36:53;5.35;;;1.92;;
29662;SDS011;16578;53.266;7.920;2023-04-03T07:39:18;5.97;;;2.00;;
29662;SDS011;16578;53.266;7.920;2023-04-03T07:41:44;4.68;;;2.20;;
29662;SDS011;16578;53.266;7.920;2023-04-03T07:44:10;7.75;;;3.15;;
29662;SDS011;16578;53.266;7.920;2023-04-03T07:46:36;5.55;;;2.15;;
29662;SDS011;16578;53.266;7.920;2023-04-03T07:49:02;10.20;;;2.42;;
29662;SDS011;16578;53.266;7.920;2023-04-03T07:51:27;3.65;;;1.85;;
29662;SDS011;16578;53.266;7.920;2023-04-03T07:53:54;3.60;;;1.98;;
29662;SDS011;16578;53.266;7.920;2023-04-03T07:56:20;3.58;;;1.60;;
29662;SDS011;16578;53.266;7.920;2023-04-03T07:58:47;4.72;;;1.98;;
29662;SDS011;16578;53.266;7.920;2023-04-03T08:01:13;4.20;;;1.60;;
29662;SDS011;16578;53.266;7.920;2023-04-03T08:03:39;1.90;;;1.40;;
29662;SDS011;16578;53.266;7.920;2023-04-03T08:06:06;2.38;;;1.40;;
29662;SDS011;16578;53.266;7.920;2023-04-03T08:08:33;5.43;;;1.50;;
29662;SDS011;16578;53.266;7.920;2023-04-03T08:11:00;4.75;;;1.63;;
29662;SDS011;16578;53.266;7.920;2023-04-03T08:13:28;4.55;;;1.92;;
29662;SDS011;16578;53.266;7.920;2023-04-03T08:16:11;3.97;;;1.52;;
29662;SDS011;16578;53.266;7.920;2023-04-03T08:18:41;2.30;;;1.50;;
29662;SDS011;16578;53.266;7.920;2023-04-03T08:21:10;4.05;;;1.75;;
29662;SDS011;16578;53.266;7.920;2023-04-03T08:23:37;4.32;;;1.65;;
29662;SDS011;16578;53.266;7.920;2023-04-03T08:26:10;2.60;;;1.23;;
29662;SDS011;16578;53.266;7.920;2023-04-03T08:28:37;2.67;;;1.48;;
29662;SDS011;16578;53.266;7.920;2023-04-03T08:31:08;1.80;;;1.20;;
29662;SDS011;16578;53.266;7.920;2023-04-03T08:33:38;3.22;;;1.42;;
29662;SDS011;16578;53.266;7.920;2023-04-03T08:36:05;1.95;;;1.15;;
29662;SDS011;16578;53.266;7.920;2023-04-03T08:38:32;2.70;;;1.10;;
29662;SDS011;16578;53.266;7.920;2023-04-03T08:41:04;3.58;;;1.35;;
29662;SDS011;16578;53.266;7.920;2023-04-03T08:43:55;5.00;;;1.15;;
29662;SDS011;16578;53.266;7.920;2023-04-03T08:46:32;3.45;;;1.10;;
29662;SDS011;16578;53.266;7.920;2023-04-03T08:49:12;2.13;;;0.93;;
29662;SDS011;16578;53.266;7.920;2023-04-03T08:52:01;3.53;;;1.58;;
29662;SDS011;16578;53.266;7.920;2023-04-03T08:54:48;3.25;;;1.15;;
29662;SDS011;16578;53.266;7.920;2023-04-03T08:57:16;5.05;;;1.70;;
29662;SDS011;16578;53.266;7.920;2023-04-03T08:59:43;3.33;;;1.30;;
29662;SDS011;16578;53.266;7.920;2023-04-03T09:02:17;1.65;;;1.20;;
29662;SDS011;16578;53.266;7.920;2023-04-03T09:05:09;1.90;;;1.25;;
29662;SDS011;16578;53.266;7.920;2023-04-03T09:07:45;3.28;;;1.70;;
29662;SDS011;16578;53.266;7.920;2023-04-03T09:10:19;7.78;;;1.20;;
29662;SDS011;16578;53.266;7.920;2023-04-03T09:12:57;4.75;;;1.30;;
29662;SDS011;16578;53.266;7.920;2023-04-03T09:15:28;3.80;;;1.23;;
29662;SDS011;16578;53.266;7.920;2023-04-03T09:18:12;3.83;;;1.50;;
29662;SDS011;16578;53.266;7.920;2023-04-03T09:26:09;2.80;;;1.13;;
29662;SDS011;16578;53.266;7.920;2023-04-03T09:28:44;2.30;;;1.20;;
29662;SDS011;16578;53.266;7.920;2023-04-03T09:31:36;2.72;;;1.20;;
29662;SDS011;16578;53.266;7.920;2023-04-03T09:36:52;1.92;;;1.02;;
29662;SDS011;16578;53.266;7.920;2023-04-03T09:39:26;2.42;;;1.17;;
29662;SDS011;16578;53.266;7.920;2023-04-03T09:41:58;4.47;;;1.20;;
29662;SDS011;16578;53.266;7.920;2023-04-03T09:44:29;1.80;;;1.00;;
29662;SDS011;16578;53.266;7.920;2023-04-03T09:47:00;2.17;;;1.08;;
29662;SDS011;16578;53.266;7.920;2023-04-03T09:50:17;5.97;;;1.00;;
29662;SDS011;16578;53.266;7.920;2023-04-03T09:52:46;3.22;;;1.10;;
29662;SDS011;16578;53.266;7.920;2023-04-03T09:55:14;2.60;;;1.00;;
29662;SDS011;16578;53.266;7.920;2023-04-03T09:57:52;3.10;;;1.10;;
29662;SDS011;16578;53.266;7.920;2023-04-03T10:00:23;2.92;;;1.35;;
29662;SDS011;16578;53.266;7.920;2023-04-03T10:02:56;2.15;;;1.10;;
29662;SDS011;16578;53.266;7.920;2023-04-03T10:08:06;1.55;;;1.15;;
29662;SDS011;16578;53.266;7.920;2023-04-03T10:10:39;1.50;;;1.15;;
29662;SDS011;16578;53.266;7.920;2023-04-03T10:13:06;1.67;;;1.15;;
29662;SDS011;16578;53.266;7.920;2023-04-03T10:21:05;0.95;;;0.75;;
29662;SDS011;16578;53.266;7.920;2023-04-03T10:23:45;1.35;;;0.82;;
29662;SDS011;16578;53.266;7.920;2023-04-03T10:26:32;4.00;;;0.90;;
29662;SDS011;16578;53.266;7.920;2023-04-03T10:32:42;3.13;;;1.05;;
29662;SDS011;16578;53.266;7.920;2023-04-03T10:35:21;1.73;;;0.85;;
29662;SDS011;16578;53.266;7.920;2023-04-03T10:38:19;1.20;;;0.80;;
29662;SDS011;16578;53.266;7.920;2023-04-03T10:46:11;1.70;;;1.10;;
29662;SDS011;16578;53.266;7.920;2023-04-03T10:51:36;2.42;;;1.33;;
29662;SDS011;16578;53.266;7.920;2023-04-03T10:54:16;2.13;;;0.82;;
29662;SDS011;16578;53.266;7.920;2023-04-03T10:56:57;1.63;;;0.98;;
29662;SDS011;16578;53.266;7.920;2023-04-03T10:59:32;3.03;;;1.00;;
29662;SDS011;16578;53.266;7.920;2023-04-03T11:02:04;2.65;;;1.15;;
29662;SDS011;16578;53.266;7.920;2023-04-03T11:04:44;2.10;;;0.80;;
29662;SDS011;16578;53.266;7.920;2023-04-03T11:07:15;3.83;;;1.00;;
29662;SDS011;16578;53.266;7.920;2023-04-03T11:09:46;1.13;;;0.75;;
29662;SDS011;16578;53.266;7.920;2023-04-03T11:12:21;3.15;;;1.05;;
29662;SDS011;16578;53.266;7.920;2023-04-03T11:15:15;2.15;;;0.80;;
29662;SDS011;16578;53.266;7.920;2023-04-03T11:17:54;2.13;;;1.00;;
29662;SDS011;16578;53.266;7.920;2023-04-03T11:20:31;1.23;;;0.80;;
29662;SDS011;16578;53.266;7.920;2023-04-03T11:23:32;1.98;;;0.82;;
29662;SDS011;16578;53.266;7.920;2023-04-03T11:25:51;1.85;;;0.90;;
29662;SDS011;16578;53.266;7.920;2023-04-03T11:28:21;4.13;;;1.40;;
29662;SDS011;16578;53.266;7.920;2023-04-03T11:39:57;2.10;;;1.10;;
29662;SDS011;16578;53.266;7.920;2023-04-03T11:47:47;1.42;;;0.80;;
29662;SDS011;16578;53.266;7.920;2023-04-03T12:05:53;2.40;;;0.80;;
29662;SDS011;16578;53.266;7.920;2023-04-03T12:08:26;2.67;;;1.00;;
29662;SDS011;16578;53.266;7.920;2023-04-03T12:29:33;1.60;;;0.90;;
29662;SDS011;16578;53.266;7.920;2023-04-03T12:40:57;1.27;;;0.70;;
29662;SDS011;16578;53.266;7.920;2023-04-03T12:43:54;1.23;;;0.95;;
29662;SDS011;16578;53.266;7.920;2023-04-03T12:46:35;2.65;;;1.20;;
29662;SDS011;16578;53.266;7.920;2023-04-03T12:49:14;1.67;;;0.80;;
29662;SDS011;16578;53.266;7.920;2023-04-03T12:54:55;1.50;;;1.00;;
29662;SDS011;16578;53.266;7.920;2023-04-03T12:57:23;2.47;;;1.02;;
29662;SDS011;16578;53.266;7.920;2023-04-03T12:59:51;1.45;;;1.00;;
29662;SDS011;16578;53.266;7.920;2023-04-03T13:02:19;4.35;;;1.25;;
29662;SDS011;16578;53.266;7.920;2023-04-03T13:04:53;1.85;;;1.25;;
29662;SDS011;16578;53.266;7.920;2023-04-03T13:09:56;2.85;;;1.20;;
29662;SDS011;16578;53.266;7.920;2023-04-03T13:12:23;2.95;;;1.20;;
29662;SDS011;16578;53.266;7.920;2023-04-03T13:14:54;2.72;;;1.10;;
29662;SDS011;16578;53.266;7.920;2023-04-03T13:17:24;2.20;;;0.90;;
29662;SDS011;16578;53.266;7.920;2023-04-03T13:19:50;3.33;;;1.13;;
29662;SDS011;16578;53.266;7.920;2023-04-03T13:22:25;1.95;;;1.17;;
29662;SDS011;16578;53.266;7.920;2023-04-03T13:25:10;1.52;;;1.05;;
29662;SDS011;16578;53.266;7.920;2023-04-03T13:27:39;1.52;;;1.13;;
29662;SDS011;16578;53.266;7.920;2023-04-03T13:30:17;1.45;;;1.00;;
29662;SDS011;16578;53.266;7.920;2023-04-03T13:33:04;1.85;;;1.10;;
29662;SDS011;16578;53.266;7.920;2023-04-03T13:35:57;2.40;;;1.23;;
29662;SDS011;16578;53.266;7.920;2023-04-03T13:38:32;1.60;;;1.20;;
29662;SDS011;16578;53.266;7.920;2023-04-03T13:40:59;2.80;;;1.20;;
29662;SDS011;16578;53.266;7.920;2023-04-03T13:43:33;1.75;;;1.10;;
29662;SDS011;16578;53.266;7.920;2023-04-03T13:46:02;2.42;;;1.00;;
29662;SDS011;16578;53.266;7.920;2023-04-03T13:48:46;3.70;;;1.40;;
29662;SDS011;16578;53.266;7.920;2023-04-03T13:51:20;1.20;;;1.10;;
29662;SDS011;16578;53.266;7.920;2023-04-03T13:53:55;1.67;;;1.00;;
29662;SDS011;16578;53.266;7.920;2023-04-03T13:56:30;3.28;;;1.30;;
29662;SDS011;16578;53.266;7.920;2023-04-03T14:01:46;2.15;;;1.30;;
29662;SDS011;16578;53.266;7.920;2023-04-03T14:04:23;3.35;;;1.40;;
29662;SDS011;16578;53.266;7.920;2023-04-03T14:06:53;2.20;;;1.25;;
29662;SDS011;16578;53.266;7.920;2023-04-03T14:09:19;4.03;;;1.25;;
29662;SDS011;16578;53.266;7.920;2023-04-03T14:11:47;2.33;;;1.10;;
29662;SDS011;16578;53.266;7.920;2023-04-03T14:14:17;2.83;;;1.67;;
29662;SDS011;16578;53.266;7.920;2023-04-03T14:16:50;1.80;;;1.05;;
29662;SDS011;16578;53.266;7.920;2023-04-03T14:19:35;3.92;;;2.47;;
29662;SDS011;16578;53.266;7.920;2023-04-03T14:22:07;2.45;;;1.60;;
29662;SDS011;16578;53.266;7.920;2023-04-03T14:24:44;4.75;;;1.63;;
29662;SDS011;16578;53.266;7.920;2023-04-03T14:27:15;3.30;;;1.40;;
29662;SDS011;16578;53.266;7.920;2023-04-03T14:29:43;2.05;;;1.48;;
29662;SDS011;16578;53.266;7.920;2023-04-03T14:32:13;2.17;;;1.20;;
29662;SDS011;16578;53.266;7.920;2023-04-03T14:34:41;4.20;;;1.40;;
29662;SDS011;16578;53.266;7.920;2023-04-03T14:37:09;1.58;;;1.20;;
29662;SDS011;16578;53.266;7.920;2023-04-03T14:39:41;1.70;;;1.13;;
29662;SDS011;16578;53.266;7.920;2023-04-03T14:42:15;3.58;;;1.30;;
29662;SDS011;16578;53.266;7.920;2023-04-03T14:44:43;3.10;;;1.52;;
29662;SDS011;16578;53.266;7.920;2023-04-03T14:47:10;1.73;;;1.33;;
29662;SDS011;16578;53.266;7.920;2023-04-03T14:49:37;5.22;;;1.63;;
29662;SDS011;16578;53.266;7.920;2023-04-03T14:52:03;1.30;;;0.98;;
29662;SDS011;16578;53.266;7.920;2023-04-03T14:54:28;3.90;;;1.30;;
29662;SDS011;16578;53.266;7.920;2023-04-03T14:56:55;2.67;;;1.50;;
29662;SDS011;16578;53.266;7.920;2023-04-03T14:59:22;4.40;;;1.38;;
29662;SDS011;16578;53.266;7.920;2023-04-03T15:01:47;3.72;;;1.48;;
29662;SDS011;16578;53.266;7.920;2023-04-03T15:04:17;2.70;;;1.08;;
29662;SDS011;16578;53.266;7.920;2023-04-03T15:06:44;1.90;;;1.38;;
29662;SDS011;16578;53.266;7.920;2023-04-03T15:09:15;3.35;;;0.90;;
29662;SDS011;16578;53.266;7.920;2023-04-03T15:11:48;1.33;;;0.90;;
29662;SDS011;16578;53.266;7.920;2023-04-03T15:14:15;4.38;;;1.35;;
29662;SDS011;16578;53.266;7.920;2023-04-03T15:16:40;1.75;;;0.98;;
29662;SDS011;16578;53.266;7.920;2023-04-03T15:19:06;1.77;;;1.20;;
29662;SDS011;16578;53.266;7.920;2023-04-03T15:21:31;2.53;;;1.30;;
29662;SDS011;16578;53.266;7.920;2023-04-03T15:23:57;2.58;;;1.20;;
29662;SDS011;16578;53.266;7.920;2023-04-03T15:26:22;2.30;;;1.17;;
29662;SDS011;16578;53.266;7.920;2023-04-03T15:28:49;1.63;;;1.10;;
29662;SDS011;16578;53.266;7.920;2023-04-03T15:31:14;2.22;;;1.05;;
29662;SDS011;16578;53.266;7.920;2023-04-03T15:33:40;2.08;;;1.08;;
29662;SDS011;16578;53.266;7.920;2023-04-03T15:36:06;2.40;;;1.10;;
29662;SDS011;16578;53.266;7.920;2023-04-03T15:38:32;1.50;;;0.88;;
29662;SDS011;16578;53.266;7.920;2023-04-03T15:40:57;2.75;;;1.17;;
29662;SDS011;16578;53.266;7.920;2023-04-03T15:43:23;2.25;;;1.20;;
29662;SDS011;16578;53.266;7.920;2023-04-03T15:45:48;2.67;;;1.27;;
29662;SDS011;16578;53.266;7.920;2023-04-03T15:48:15;2.92;;;1.23;;
29662;SDS011;16578;53.266;7.920;2023-04-03T15:50:41;2.00;;;1.08;;
29662;SDS011;16578;53.266;7.920;2023-04-03T15:53:07;3.90;;;1.30;;
29662;SDS011;16578;53.266;7.920;2023-04-03T15:55:34;1.92;;;1.20;;
29662;SDS011;16578;53.266;7.920;2023-04-03T15:58:00;3.85;;;1.35;;
29662;SDS011;16578;53.266;7.920;2023-04-03T16:00:27;2.35;;;1.15;;
29662;SDS011;16578;53.266;7.920;2023-04-03T16:02:58;1.30;;;0.95;;
29662;SDS011;16578;53.266;7.920;2023-04-03T16:05:28;3.00;;;1.00;;
29662;SDS011;16578;53.266;7.920;2023-04-03T16:07:54;1.65;;;1.17;;
29662;SDS011;16578;53.266;7.920;2023-04-03T16:10:20;2.08;;;1.40;;
29662;SDS011;16578;53.266;7.920;2023-04-03T16:12:46;3.15;;;1.30;;
29662;SDS011;16578;53.266;7.920;2023-04-03T16:15:12;2.80;;;1.02;;
29662;SDS011;16578;53.266;7.920;2023-04-03T16:17:38;2.75;;;1.20;;
29662;SDS011;16578;53.266;7.920;2023-04-03T16:20:06;2.05;;;1.00;;
29662;SDS011;16578;53.266;7.920;2023-04-03T16:22:32;2.08;;;1.10;;
29662;SDS011;16578;53.266;7.920;2023-04-03T16:24:58;1.98;;;1.25;;
29662;SDS011;16578;53.266;7.920;2023-04-03T16:27:24;1.88;;;1.25;;
29662;SDS011;16578;53.266;7.920;2023-04-03T16:29:54;2.38;;;1.17;;
29662;SDS011;16578;53.266;7.920;2023-04-03T16:32:20;2.50;;;1.25;;
29662;SDS011;16578;53.266;7.920;2023-04-03T16:34:47;5.55;;;1.55;;
29662;SDS011;16578;53.266;7.920;2023-04-03T16:37:13;3.45;;;1.30;;
29662;SDS011;16578;53.266;7.920;2023-04-03T16:39:39;3.65;;;2.03;;
29662;SDS011;16578;53.266;7.920;2023-04-03T16:42:05;3.33;;;1.55;;
29662;SDS011;16578;53.266;7.920;2023-04-03T16:44:30;2.17;;;1.15;;